createdAt,value
2019-04-27T00:00:28.510Z,0.00
2019-04-27T00:01:27.543Z,0.00
2019-04-27T00:02:27.561Z,0.00
2019-04-27T00:03:27.537Z,0.00
2019-04-27T00:04:27.505Z,0.00
2019-04-27T00:05:32.297Z,0.00
2019-04-27T00:06:28.486Z,0.00
2019-04-27T00:07:27.489Z,0.00
2019-04-27T00:08:28.474Z,0.00
2019-04-27T00:09:28.465Z,0.00
2019-04-27T00:10:28.677Z,0.00
2019-04-27T00:11:27.431Z,0.00
2019-04-27T00:12:27.440Z,0.00
2019-04-27T00:13:27.451Z,0.00
2019-04-27T00:14:27.395Z,0.00
2019-04-27T00:15:31.341Z,0.00
2019-04-27T00:16:28.372Z,0.00
2019-04-27T00:17:45.053Z,0.00
2019-04-27T00:18:28.351Z,0.00
2019-04-27T00:19:31.438Z,0.00
2019-04-27T00:20:27.326Z,0.00
2019-04-27T00:21:27.315Z,0.00
2019-04-27T00:22:27.336Z,0.00
2019-04-27T00:23:27.898Z,0.00
2019-04-27T00:24:27.287Z,0.00
2019-04-27T00:25:27.268Z,0.00
2019-04-27T00:26:27.260Z,0.00
2019-04-27T00:27:27.247Z,0.00
2019-04-27T00:28:27.262Z,0.00
2019-04-27T00:29:27.224Z,0.00
2019-04-27T00:30:27.219Z,0.00
2019-04-27T00:31:27.207Z,0.00
2019-04-27T00:32:27.200Z,0.00
2019-04-27T00:33:27.485Z,0.00
2019-04-27T00:34:27.178Z,0.00
2019-04-27T00:35:27.159Z,0.00
2019-04-27T00:36:27.148Z,0.00
2019-04-27T00:37:27.142Z,0.00
2019-04-27T00:38:27.143Z,0.00
2019-04-27T00:39:27.120Z,0.00
2019-04-27T00:40:27.109Z,0.00
2019-04-27T00:41:27.085Z,0.00
2019-04-27T00:42:27.079Z,0.00
2019-04-27T00:43:27.139Z,0.00
2019-04-27T00:44:27.056Z,0.00
2019-04-27T00:45:27.050Z,0.00
2019-04-27T00:46:27.043Z,0.00
2019-04-27T00:47:27.020Z,0.00
2019-04-27T00:48:27.030Z,0.00
2019-04-27T00:49:27.005Z,0.00
2019-04-27T00:50:26.992Z,0.00
2019-04-27T00:51:26.997Z,0.00
2019-04-27T00:52:26.965Z,0.00
2019-04-27T00:53:27.033Z,0.00
2019-04-27T00:54:26.946Z,0.00
2019-04-27T07:55:34.947Z,6220.00
2019-04-27T07:56:34.911Z,6300.00
2019-04-27T07:57:34.907Z,6136.00
2019-04-27T07:58:34.912Z,5968.00
2019-04-27T07:59:34.883Z,5808.00
2019-04-27T08:00:34.877Z,5668.00
2019-04-27T08:01:34.913Z,5656.00
2019-04-27T08:02:34.844Z,5596.00
2019-04-27T08:03:34.847Z,5556.00
2019-04-27T08:04:34.826Z,5512.00
2019-04-27T08:05:34.843Z,5752.00
2019-04-27T08:06:34.826Z,5816.00
2019-04-27T08:07:34.816Z,5944.00
2019-04-27T08:08:34.772Z,5828.00
2019-04-27T08:09:34.787Z,6052.00
2019-04-27T08:10:34.788Z,6148.00
2019-04-27T08:11:34.757Z,6464.00
2019-04-27T08:12:34.730Z,6828.00
2019-04-27T08:13:34.717Z,6988.00
2019-04-27T08:14:34.705Z,7044.00
2019-04-27T08:15:34.711Z,6976.00
2019-04-27T08:16:34.685Z,6996.00
2019-04-27T08:17:34.683Z,7432.00
2019-04-27T08:18:34.660Z,7612.00
2019-04-27T08:19:34.657Z,7928.00
2019-04-27T08:20:34.654Z,8008.00
2019-04-27T08:21:43.553Z,7920.00
2019-04-27T08:22:35.614Z,7692.00
2019-04-27T08:23:34.603Z,7664.00
2019-04-27T08:24:34.604Z,7496.00
2019-04-27T08:25:34.600Z,7276.00
2019-04-27T08:26:34.595Z,7204.00
2019-04-27T08:27:34.581Z,7368.00
2019-04-27T08:28:34.549Z,7476.00
2019-04-27T08:29:34.537Z,7588.00
2019-04-27T08:30:34.543Z,7608.00
2019-04-27T08:31:34.534Z,7632.00
2019-04-27T08:32:34.508Z,7552.00
2019-04-27T08:33:34.497Z,7748.00
2019-04-27T08:34:34.490Z,8164.00
2019-04-27T08:35:34.523Z,8232.00
2019-04-27T08:36:34.482Z,8036.00
2019-04-27T08:37:34.446Z,7980.00
2019-04-27T08:38:34.451Z,8412.00
2019-04-27T08:39:34.430Z,8904.00
2019-04-27T08:40:34.413Z,9196.00
2019-04-27T08:41:34.431Z,9244.00
2019-04-27T08:42:34.395Z,9272.00
2019-04-27T08:43:34.383Z,9192.00
2019-04-27T08:44:34.361Z,9664.00
2019-04-27T08:45:34.371Z,10024.00
2019-04-27T08:46:34.382Z,9824.00
2019-04-27T08:47:34.352Z,9900.00
2019-04-27T08:48:36.921Z,9908.00
2019-04-27T08:49:34.311Z,9736.00
2019-04-27T08:50:34.299Z,9824.00
2019-04-27T08:51:34.301Z,9776.00
2019-04-27T08:52:34.273Z,9392.00
2019-04-27T08:53:34.265Z,10224.00
2019-04-27T08:54:34.252Z,10516.00
2019-04-27T08:55:34.245Z,10656.00
2019-04-27T08:56:34.255Z,11268.00
2019-04-27T08:57:34.214Z,10692.00
2019-04-27T08:58:34.209Z,9608.00
2019-04-27T08:59:34.198Z,10696.00
2019-04-27T09:00:34.185Z,12068.00
2019-04-27T09:01:34.203Z,14912.00
2019-04-27T09:02:44.153Z,14804.00
2019-04-27T09:03:35.144Z,13364.00
2019-04-27T09:04:34.137Z,12556.00
2019-04-27T09:05:34.121Z,12704.00
2019-04-27T09:06:34.138Z,12512.00
2019-04-27T09:07:34.111Z,12412.00
2019-04-27T09:08:34.112Z,12436.00
2019-04-27T09:09:34.084Z,13276.00
2019-04-27T09:10:34.066Z,14208.00
2019-04-27T09:11:34.074Z,15284.00
2019-04-27T09:12:34.044Z,15280.00
2019-04-27T09:13:34.035Z,13696.00
2019-04-27T09:14:34.034Z,13952.00
2019-04-27T09:15:34.030Z,13712.00
2019-04-27T09:16:34.024Z,13644.00
2019-04-27T09:17:33.990Z,13796.00
2019-04-27T09:18:33.982Z,11860.00
2019-04-27T09:19:33.989Z,10356.00
2019-04-27T09:20:33.959Z,10228.00
2019-04-27T09:21:33.962Z,11804.00
2019-04-27T09:22:33.931Z,12604.00
2019-04-27T09:23:33.926Z,12860.00
2019-04-27T09:24:33.915Z,12980.00
2019-04-27T09:25:33.911Z,12644.00
2019-04-27T09:26:33.917Z,10904.00
2019-04-27T09:27:33.876Z,10176.00
2019-04-27T09:28:33.883Z,10924.00
2019-04-27T09:29:33.855Z,9800.00
2019-04-27T09:30:33.854Z,7720.00
2019-04-27T09:31:33.854Z,8308.00
2019-04-27T09:32:33.823Z,8440.00
2019-04-27T09:33:33.806Z,7820.00
2019-04-27T09:34:33.806Z,7332.00
2019-04-27T09:35:35.569Z,8668.00
2019-04-27T09:36:33.803Z,9568.00
2019-04-27T09:37:33.796Z,10240.00
2019-04-27T09:38:35.656Z,10172.00
2019-04-27T09:39:35.757Z,9972.00
2019-04-27T09:40:33.743Z,9820.00
2019-04-27T09:41:33.733Z,10088.00
2019-04-27T09:42:33.705Z,10364.00
2019-04-27T09:43:33.689Z,10492.00
2019-04-27T09:44:33.683Z,10836.00
2019-04-27T09:45:33.701Z,10828.00
2019-04-27T09:46:33.709Z,10472.00
2019-04-27T09:47:33.714Z,10960.00
2019-04-27T09:48:33.640Z,10996.00
2019-04-27T09:49:33.631Z,10536.00
2019-04-27T09:50:35.932Z,10472.00
2019-04-27T09:51:33.632Z,10276.00
2019-04-27T09:52:33.610Z,10572.00
2019-04-27T09:53:33.599Z,10572.00
2019-04-27T09:54:33.598Z,11008.00
2019-04-27T09:55:33.563Z,11680.00
2019-04-27T09:56:33.556Z,12392.00
2019-04-27T09:57:33.553Z,13308.00
2019-04-27T09:58:33.526Z,14744.00
2019-04-27T09:59:33.510Z,15336.00
2019-04-27T10:00:33.503Z,15516.00
2019-04-27T10:01:33.516Z,16384.00
2019-04-27T10:02:33.598Z,17248.00
2019-04-27T10:03:33.469Z,18400.00
2019-04-27T10:04:33.470Z,16320.00
2019-04-27T10:05:33.446Z,16192.00
2019-04-27T10:06:33.442Z,19840.00
2019-04-27T10:07:33.457Z,21504.00
2019-04-27T10:08:33.411Z,17472.00
2019-04-27T10:09:33.403Z,18016.00
2019-04-27T10:10:33.390Z,25696.00
2019-04-27T10:11:33.378Z,26720.00
2019-04-27T10:12:34.443Z,17504.00
2019-04-27T10:13:33.354Z,18400.00
2019-04-27T10:14:33.355Z,19712.00
2019-04-27T10:15:33.353Z,21280.00
2019-04-27T10:16:33.344Z,21824.00
2019-04-27T10:17:33.333Z,30528.00
2019-04-27T10:18:33.303Z,23776.00
2019-04-27T10:19:33.300Z,23584.00
2019-04-27T10:20:38.292Z,21696.00
2019-04-27T10:21:34.264Z,20896.00
2019-04-27T10:22:41.202Z,20352.00
2019-04-27T10:23:34.240Z,18080.00
2019-04-27T10:24:33.232Z,17312.00
2019-04-27T10:25:33.227Z,19808.00
2019-04-27T10:26:33.218Z,21984.00
2019-04-27T10:27:33.218Z,20384.00
2019-04-27T10:28:33.196Z,19776.00
2019-04-27T10:29:33.178Z,17536.00
2019-04-27T10:30:33.160Z,15256.00
2019-04-27T10:31:33.187Z,15280.00
2019-04-27T10:32:33.159Z,15600.00
2019-04-27T10:33:33.164Z,15052.00
2019-04-27T10:34:33.122Z,16128.00
2019-04-27T10:35:33.107Z,15292.00
2019-04-27T10:36:33.094Z,16384.00
2019-04-27T10:37:33.105Z,17920.00
2019-04-27T10:38:33.118Z,18336.00
2019-04-27T10:39:33.071Z,21088.00
2019-04-27T10:40:33.059Z,23424.00
2019-04-27T10:41:33.042Z,25280.00
2019-04-27T10:42:33.052Z,29920.00
2019-04-27T10:43:33.023Z,26496.00
2019-04-27T10:44:32.999Z,26208.00
2019-04-27T10:45:32.994Z,30272.00
2019-04-27T10:46:32.978Z,27136.00
2019-04-27T10:47:32.998Z,22816.00
2019-04-27T10:48:32.956Z,32096.00
2019-04-27T10:49:32.945Z,31616.00
2019-04-27T10:50:33.909Z,59712.00
2019-04-27T10:51:32.927Z,53536.00
2019-04-27T10:52:32.916Z,56352.00
2019-04-27T10:53:32.929Z,22240.00
2019-04-27T10:54:32.891Z,23168.00
2019-04-27T10:55:32.934Z,68416.00
2019-04-27T10:56:32.870Z,49184.00
2019-04-27T10:57:32.888Z,94784.00
2019-04-27T10:58:32.847Z,65216.00
2019-04-27T10:59:32.841Z,77280.00
2019-04-27T11:00:32.826Z,67360.00
2019-04-27T11:01:32.811Z,40832.00
2019-04-27T11:02:32.822Z,51072.00
2019-04-27T11:03:32.808Z,22496.00
2019-04-27T11:04:32.780Z,48992.00
2019-04-27T11:05:32.774Z,38240.00
2019-04-27T11:06:32.767Z,33792.00
2019-04-27T11:07:32.764Z,35456.00
2019-04-27T11:08:32.740Z,41728.00
2019-04-27T11:09:32.725Z,28448.00
2019-04-27T11:10:32.719Z,19040.00
2019-04-27T11:11:32.701Z,9168.00
2019-04-27T11:12:32.714Z,7740.00
2019-04-27T11:13:32.686Z,6880.00
2019-04-27T11:14:32.677Z,9720.00
2019-04-27T11:15:32.655Z,12080.00
2019-04-27T11:16:32.650Z,13020.00
2019-04-27T11:17:32.654Z,12588.00
2019-04-27T11:18:32.637Z,12872.00
2019-04-27T11:19:32.615Z,18880.00
2019-04-27T11:20:32.639Z,38048.00
2019-04-27T11:21:32.590Z,35200.00
2019-04-27T11:22:32.604Z,47040.00
2019-04-27T11:23:32.579Z,53312.00
2019-04-27T11:24:32.563Z,35008.00
2019-04-27T11:25:32.553Z,35104.00
2019-04-27T11:26:32.536Z,53280.00
2019-04-27T11:27:32.564Z,34912.00
2019-04-27T11:28:32.511Z,26240.00
2019-04-27T11:29:32.523Z,33344.00
2019-04-27T11:30:32.490Z,21312.00
2019-04-27T11:31:32.481Z,23136.00
2019-04-27T11:32:32.546Z,16064.00
2019-04-27T11:33:32.457Z,15420.00
2019-04-27T11:34:32.447Z,15084.00
2019-04-27T11:35:32.447Z,12792.00
2019-04-27T11:36:32.512Z,12432.00
2019-04-27T11:37:32.436Z,13752.00
2019-04-27T11:38:32.473Z,14528.00
2019-04-27T11:39:32.411Z,52000.00
2019-04-27T11:40:32.384Z,51040.00
2019-04-27T11:41:32.370Z,40160.00
2019-04-27T11:42:32.389Z,41504.00
2019-04-27T11:43:32.508Z,44416.00
2019-04-27T11:44:32.515Z,43136.00
2019-04-27T11:45:32.325Z,146848.00
2019-04-27T11:46:32.330Z,53024.00
2019-04-27T11:47:32.330Z,57792.00
2019-04-27T11:48:32.291Z,74368.00
2019-04-27T11:49:32.335Z,48192.00
2019-04-27T11:50:35.649Z,72256.00
2019-04-27T11:51:32.292Z,44864.00
2019-04-27T11:52:32.271Z,60768.00
2019-04-27T11:53:32.260Z,68704.00
2019-04-27T11:54:32.992Z,67200.00
2019-04-27T11:55:32.220Z,62272.00
2019-04-27T11:56:32.235Z,49056.00
2019-04-27T11:57:32.208Z,76384.00
2019-04-27T11:58:34.888Z,65856.00
2019-04-27T11:59:32.167Z,68480.00
2019-04-27T12:00:32.164Z,45184.00
2019-04-27T12:01:32.152Z,40480.00
2019-04-27T12:02:32.181Z,94560.00
2019-04-27T12:03:32.157Z,41568.00
2019-04-27T12:04:32.136Z,15056.00
2019-04-27T12:05:32.153Z,13024.00
2019-04-27T12:06:32.102Z,13352.00
2019-04-27T12:07:32.105Z,12104.00
2019-04-27T12:08:32.091Z,15016.00
2019-04-27T12:09:32.075Z,14884.00
2019-04-27T12:10:32.075Z,11092.00
2019-04-27T12:11:32.080Z,9224.00
2019-04-27T12:12:32.029Z,13152.00
2019-04-27T12:13:32.040Z,20864.00
2019-04-27T12:14:32.009Z,20608.00
2019-04-27T12:15:32.015Z,21120.00
2019-04-27T12:16:31.990Z,27296.00
2019-04-27T12:17:31.973Z,19488.00
2019-04-27T12:18:32.010Z,21024.00
2019-04-27T12:19:31.948Z,16384.00
2019-04-27T12:20:31.940Z,15980.00
2019-04-27T12:21:31.974Z,16800.00
2019-04-27T12:22:31.952Z,13452.00
2019-04-27T12:23:35.553Z,11544.00
2019-04-27T12:24:32.892Z,12476.00
2019-04-27T12:25:31.890Z,14248.00
2019-04-27T12:26:31.882Z,17888.00
2019-04-27T12:27:31.910Z,20672.00
2019-04-27T12:28:31.898Z,18048.00
2019-04-27T12:29:31.839Z,19264.00
2019-04-27T12:30:31.854Z,18944.00
2019-04-27T12:31:31.822Z,18848.00
2019-04-27T12:32:31.820Z,16256.00
2019-04-27T12:33:31.845Z,15940.00
2019-04-27T12:34:31.785Z,14968.00
2019-04-27T12:35:31.777Z,15812.00
2019-04-27T12:36:31.773Z,17728.00
2019-04-27T12:37:31.756Z,17728.00
2019-04-27T12:38:31.762Z,13952.00
2019-04-27T12:39:31.727Z,12864.00
2019-04-27T12:40:31.726Z,15228.00
2019-04-27T12:41:31.715Z,10728.00
2019-04-27T12:42:31.701Z,11040.00
2019-04-27T12:43:31.721Z,8380.00
2019-04-27T12:44:31.684Z,7108.00
2019-04-27T12:45:31.671Z,6244.00
2019-04-27T12:46:31.654Z,5884.00
2019-04-27T12:47:31.648Z,5356.00
2019-04-27T12:48:31.657Z,4676.00
2019-04-27T12:49:31.667Z,4144.00
2019-04-27T12:50:31.632Z,3976.00
2019-04-27T12:51:31.606Z,3376.00
2019-04-27T12:52:31.589Z,3096.00
2019-04-27T12:53:31.608Z,2780.00
2019-04-27T12:54:31.748Z,2404.00
2019-04-27T12:55:31.562Z,2188.00
2019-04-27T12:56:31.541Z,2156.00
2019-04-27T12:57:31.573Z,2040.00
2019-04-27T12:58:31.522Z,2040.00
2019-04-27T12:59:31.543Z,2256.00
2019-04-27T13:00:31.521Z,2336.00
2019-04-27T13:01:31.499Z,2532.00
2019-04-27T13:02:31.470Z,2816.00
2019-04-27T13:03:31.466Z,3188.00
2019-04-27T13:04:31.471Z,3696.00
2019-04-27T13:05:31.436Z,4588.00
2019-04-27T13:06:31.503Z,5708.00
2019-04-27T13:07:31.423Z,5944.00
2019-04-27T13:08:31.439Z,6036.00
2019-04-27T13:09:31.416Z,5852.00
2019-04-27T13:10:31.402Z,5148.00
2019-04-27T13:11:31.389Z,4744.00
2019-04-27T13:12:31.367Z,4648.00
2019-04-27T13:13:31.347Z,4580.00
2019-04-27T13:14:31.357Z,4528.00
2019-04-27T13:15:31.351Z,4256.00
2019-04-27T13:16:31.325Z,4040.00
2019-04-27T13:17:31.336Z,3776.00
2019-04-27T13:18:31.309Z,3616.00
2019-04-27T13:19:31.283Z,3748.00
2019-04-27T13:20:31.372Z,3336.00
2019-04-27T13:21:31.264Z,3276.00
2019-04-27T13:22:31.334Z,3192.00
2019-04-27T13:23:31.240Z,2992.00
2019-04-27T13:24:31.240Z,2824.00
2019-04-27T13:25:31.239Z,2648.00
2019-04-27T13:26:31.199Z,2508.00
2019-04-27T13:27:31.213Z,2384.00
2019-04-27T13:28:31.186Z,2288.00
2019-04-27T13:29:31.175Z,2176.00
2019-04-27T13:30:31.187Z,2100.00
2019-04-27T13:31:31.145Z,2068.00
2019-04-27T13:32:31.134Z,2104.00
2019-04-27T13:33:31.138Z,2140.00
2019-04-27T13:34:31.115Z,2244.00
2019-04-27T13:35:39.456Z,2248.00
2019-04-27T13:36:33.090Z,2304.00
2019-04-27T13:37:31.078Z,2436.00
2019-04-27T13:38:31.067Z,2480.00
2019-04-27T13:39:31.056Z,2652.00
2019-04-27T13:40:31.063Z,2704.00
2019-04-27T13:41:32.942Z,2624.00
2019-04-27T13:42:31.063Z,2604.00
2019-04-27T13:43:31.009Z,2628.00
2019-04-27T13:44:31.003Z,2588.00
2019-04-27T13:45:30.990Z,2512.00
2019-04-27T13:46:30.992Z,2692.00
2019-04-27T13:47:30.971Z,2772.00
2019-04-27T13:48:30.950Z,2872.00
2019-04-27T13:49:30.938Z,2956.00
2019-04-27T13:50:31.015Z,3112.00
2019-04-27T13:51:30.937Z,3340.00
2019-04-27T13:52:30.935Z,3424.00
2019-04-27T13:53:32.494Z,3596.00
2019-04-27T13:54:30.887Z,3668.00
2019-04-27T13:55:30.886Z,3408.00
2019-04-27T13:56:30.855Z,3204.00
2019-04-27T13:57:30.871Z,3724.00
2019-04-27T13:58:31.065Z,4360.00
2019-04-27T13:59:31.840Z,4416.00
2019-04-27T14:00:30.814Z,4508.00
2019-04-27T14:01:30.813Z,4680.00
2019-04-27T14:02:32.600Z,4768.00
2019-04-27T14:03:30.797Z,4812.00
2019-04-27T14:04:30.772Z,4692.00
2019-04-27T14:05:30.766Z,4444.00
2019-04-27T14:06:30.792Z,4280.00
2019-04-27T14:07:30.771Z,4288.00
2019-04-27T14:08:30.736Z,4348.00
2019-04-27T14:09:30.802Z,4436.00
2019-04-27T14:10:30.702Z,4984.00
2019-04-27T14:11:30.709Z,5496.00
2019-04-27T14:12:31.074Z,5648.00
2019-04-27T14:13:30.681Z,5940.00
2019-04-27T14:14:30.674Z,6032.00
2019-04-27T14:15:30.646Z,6100.00
2019-04-27T14:16:30.645Z,5740.00
2019-04-27T14:17:30.647Z,5228.00
2019-04-27T14:18:30.616Z,4592.00
2019-04-27T14:19:30.630Z,4036.00
2019-04-27T14:20:30.605Z,3532.00
2019-04-27T14:21:32.883Z,3392.00
2019-04-27T14:22:31.600Z,3364.00
2019-04-27T14:23:30.577Z,3436.00
2019-04-27T14:24:32.009Z,3668.00
2019-04-27T14:25:30.564Z,3732.00
2019-04-27T14:26:31.052Z,3844.00
2019-04-27T14:27:30.514Z,3908.00
2019-04-27T14:28:30.518Z,3800.00
2019-04-27T14:29:30.483Z,3672.00
2019-04-27T14:30:30.477Z,3756.00
2019-04-27T14:31:30.495Z,3796.00
2019-04-27T14:32:30.454Z,3864.00
2019-04-27T14:33:30.491Z,4040.00
2019-04-27T14:34:30.432Z,4180.00
2019-04-27T14:35:31.264Z,4396.00
2019-04-27T14:36:30.418Z,4540.00
2019-04-27T14:37:30.427Z,4668.00
2019-04-27T14:38:30.408Z,4916.00
2019-04-27T14:39:30.371Z,5312.00
2019-04-27T14:40:30.376Z,5756.00
2019-04-27T14:41:30.353Z,6472.00
2019-04-27T14:42:30.356Z,6632.00
2019-04-27T14:43:30.359Z,6380.00
2019-04-27T14:44:30.316Z,6276.00
2019-04-27T14:45:30.308Z,6100.00
2019-04-27T14:46:30.576Z,5752.00
2019-04-27T14:47:30.328Z,5456.00
2019-04-27T14:48:30.701Z,5416.00
2019-04-27T14:49:30.263Z,5512.00
2019-04-27T14:50:30.256Z,5564.00
2019-04-27T14:51:30.239Z,5652.00
2019-04-27T14:52:30.237Z,5760.00
2019-04-27T14:53:30.266Z,5980.00
2019-04-27T14:54:44.994Z,6024.00
2019-04-27T14:55:32.011Z,6152.00
2019-04-27T14:56:30.185Z,6100.00
2019-04-27T14:57:30.199Z,5916.00
2019-04-27T14:58:30.208Z,6000.00
2019-04-27T14:59:30.248Z,6412.00
2019-04-27T15:00:30.658Z,6456.00
2019-04-27T15:01:30.127Z,6920.00
2019-04-27T15:02:30.123Z,7144.00
2019-04-27T15:03:30.272Z,10788.00
2019-04-27T15:04:31.318Z,8100.00
2019-04-27T15:05:30.163Z,8704.00
2019-04-27T15:06:30.278Z,14784.00
2019-04-27T15:07:30.093Z,12328.00
2019-04-27T15:08:30.080Z,7908.00
2019-04-27T15:09:30.122Z,7352.00
2019-04-27T15:10:33.009Z,7324.00
2019-04-27T15:11:31.563Z,6836.00
2019-04-27T15:12:32.130Z,6796.00
2019-04-27T15:13:30.053Z,6764.00
2019-04-27T15:14:31.072Z,7880.00
2019-04-27T15:15:32.569Z,7184.00
2019-04-27T15:16:29.968Z,7252.00
2019-04-27T15:17:29.957Z,15936.00
2019-04-27T15:18:29.954Z,19232.00
2019-04-27T15:19:29.953Z,17088.00
2019-04-27T15:20:31.078Z,22368.00
2019-04-27T15:21:32.678Z,14656.00
2019-04-27T15:22:30.887Z,7308.00
2019-04-27T15:23:30.837Z,11932.00
2019-04-27T15:24:31.195Z,8196.00
2019-04-27T15:25:35.033Z,5932.00
2019-04-27T15:26:30.891Z,5728.00
2019-04-27T15:27:30.856Z,5548.00
2019-04-27T15:28:32.063Z,5276.00
2019-04-27T15:29:30.195Z,5200.00
2019-04-27T15:30:29.800Z,5496.00
2019-04-27T15:31:29.828Z,5292.00
2019-04-27T15:32:33.590Z,5756.00
2019-04-27T15:33:29.772Z,5760.00
2019-04-27T15:34:29.821Z,5508.00
2019-04-27T15:35:29.743Z,6564.00
2019-04-27T15:36:29.729Z,5512.00
2019-04-27T15:37:33.938Z,6096.00
2019-04-27T15:38:30.734Z,5496.00
2019-04-27T15:39:30.619Z,5764.00
2019-04-27T15:40:29.685Z,5860.00
2019-04-27T15:41:31.558Z,7632.00
2019-04-27T15:42:29.695Z,10400.00
2019-04-27T15:43:30.916Z,7048.00
2019-04-27T15:44:29.665Z,6560.00
2019-04-27T15:45:29.621Z,6776.00
2019-04-27T15:46:33.728Z,6896.00
2019-04-27T15:47:33.479Z,6952.00
2019-04-27T15:48:30.717Z,6704.00
2019-04-27T15:49:29.591Z,6900.00
2019-04-27T15:50:32.247Z,11388.00
2019-04-27T15:51:29.563Z,15840.00
2019-04-27T15:52:33.057Z,9452.00
2019-04-27T15:53:29.545Z,9212.00
2019-04-27T15:54:32.291Z,7736.00
2019-04-27T15:55:34.570Z,6916.00
2019-04-27T15:56:34.707Z,6756.00
2019-04-27T15:57:29.495Z,6844.00
2019-04-27T15:58:29.489Z,8380.00
2019-04-27T15:59:30.919Z,10204.00
2019-04-27T16:00:30.492Z,14688.00
2019-04-27T16:01:35.629Z,17856.00
2019-04-27T16:02:30.429Z,16064.00
2019-04-27T16:03:31.430Z,10708.00
2019-04-27T16:04:29.406Z,6556.00
2019-04-27T16:05:32.641Z,5680.00
2019-04-27T16:06:30.408Z,5344.00
2019-04-27T16:07:31.719Z,5284.00
2019-04-27T16:08:29.364Z,5316.00
2019-04-27T16:09:29.361Z,5520.00
2019-04-27T16:10:32.863Z,5824.00
2019-04-27T16:11:30.352Z,5664.00
2019-04-27T16:12:29.338Z,5680.00
2019-04-27T16:13:32.915Z,5660.00
2019-04-27T16:14:29.295Z,5436.00
2019-04-27T16:15:29.971Z,5440.00
2019-04-27T16:16:33.351Z,5332.00
2019-04-27T16:17:31.904Z,5384.00
2019-04-27T16:18:32.621Z,5356.00
2019-04-27T16:19:29.246Z,5056.00
2019-04-27T16:20:33.637Z,4976.00
2019-04-27T16:21:31.520Z,4720.00
2019-04-27T16:22:29.219Z,4636.00
2019-04-27T16:23:33.565Z,4628.00
2019-04-27T16:24:32.217Z,4236.00
2019-04-27T16:25:31.580Z,4024.00
2019-04-27T16:26:30.183Z,3900.00
2019-04-27T16:27:31.439Z,3768.00
2019-04-27T16:28:30.162Z,3584.00
2019-04-27T16:29:31.570Z,3508.00
2019-04-27T16:30:29.113Z,3172.00
2019-04-27T16:31:32.054Z,3068.00
2019-04-27T16:32:29.102Z,2968.00
2019-04-27T16:33:29.100Z,2912.00
2019-04-27T16:34:32.978Z,2924.00
2019-04-27T16:35:30.076Z,2924.00
2019-04-27T16:36:29.119Z,2836.00
2019-04-27T16:37:29.039Z,2700.00
2019-04-27T16:38:33.570Z,2544.00
2019-04-27T16:39:30.023Z,2560.00
2019-04-27T16:40:30.148Z,2468.00
2019-04-27T16:41:29.025Z,2424.00
2019-04-27T16:42:28.977Z,2520.00
2019-04-27T16:43:32.620Z,2436.00
2019-04-27T16:44:28.967Z,2440.00
2019-04-27T16:45:28.963Z,2452.00
2019-04-27T16:46:28.946Z,2496.00
2019-04-27T16:47:28.966Z,2632.00
2019-04-27T16:48:34.331Z,2544.00
2019-04-27T16:49:29.919Z,2424.00
2019-04-27T16:50:28.971Z,2324.00
2019-04-27T16:51:29.789Z,2248.00
2019-04-27T16:52:30.144Z,2188.00
2019-04-27T16:53:30.073Z,2240.00
2019-04-27T16:54:29.852Z,2360.00
2019-04-27T16:55:34.075Z,2452.00
2019-04-27T16:56:29.917Z,2600.00
2019-04-27T16:57:32.423Z,2456.00
2019-04-27T16:58:31.869Z,2420.00
2019-04-27T16:59:43.590Z,2340.00
2019-04-27T17:00:30.511Z,2236.00
2019-04-27T17:01:30.470Z,2220.00
2019-04-27T17:02:28.797Z,2276.00
2019-04-27T17:03:31.628Z,2068.00
2019-04-27T17:04:29.394Z,1976.00
2019-04-27T17:05:34.276Z,1772.00
2019-04-27T17:06:29.862Z,1716.00
2019-04-27T17:07:30.258Z,1660.00
2019-04-27T17:08:29.681Z,1620.00
2019-04-27T17:09:29.216Z,1624.00
2019-04-27T17:10:29.152Z,1592.00
2019-04-27T17:11:29.787Z,1612.00
2019-04-27T17:12:32.475Z,1612.00
2019-04-27T17:13:30.591Z,1632.00
2019-04-27T17:14:34.816Z,1636.00
2019-04-27T17:15:30.038Z,1660.00
2019-04-27T17:16:32.222Z,1600.00
2019-04-27T17:17:29.613Z,1576.00
2019-04-27T17:18:30.930Z,1540.00
2019-04-27T17:19:30.583Z,1504.00
2019-04-27T17:20:29.909Z,1484.00
2019-04-27T17:21:28.889Z,1464.00
2019-04-27T17:22:28.699Z,1460.00
2019-04-27T17:23:31.241Z,1380.00
2019-04-27T17:24:31.901Z,1352.00
2019-04-27T17:25:33.069Z,1340.00
2019-04-27T17:26:29.476Z,1340.00
2019-04-27T17:27:31.214Z,1384.00
2019-04-27T17:28:28.494Z,1452.00
2019-04-27T17:29:28.473Z,1444.00
2019-04-27T17:30:31.004Z,1464.00
2019-04-27T17:31:29.420Z,1436.00
2019-04-27T17:32:30.390Z,1392.00
2019-04-27T17:33:29.429Z,1352.00
2019-04-27T17:34:28.640Z,1292.00
2019-04-27T17:35:28.573Z,1212.00
2019-04-27T17:36:29.259Z,1176.00
2019-04-27T17:37:32.228Z,1136.00
2019-04-27T17:38:30.493Z,1012.00
2019-04-27T17:39:29.813Z,960.00
2019-04-27T17:40:29.929Z,968.00
2019-04-27T17:41:29.318Z,964.00
2019-04-27T17:42:30.621Z,900.00
2019-04-27T17:43:28.880Z,884.00
2019-04-27T17:44:28.815Z,828.00
2019-04-27T17:45:30.464Z,792.00
2019-04-27T17:46:29.268Z,732.00
2019-04-27T17:47:29.917Z,696.00
2019-04-27T17:48:28.868Z,688.00
2019-04-27T17:49:28.222Z,700.00
2019-04-27T17:50:29.864Z,716.00
2019-04-27T17:51:30.685Z,720.00
2019-04-27T17:52:29.104Z,720.00
2019-04-27T17:53:29.881Z,704.00
2019-04-27T17:54:28.987Z,664.00
2019-04-27T17:55:28.188Z,632.00
2019-04-27T17:56:35.953Z,596.00
2019-04-27T17:57:30.163Z,560.00
2019-04-27T17:58:28.656Z,532.00
2019-04-27T17:59:28.118Z,488.00
2019-04-27T18:00:28.226Z,456.00
2019-04-27T18:01:30.100Z,412.00
2019-04-27T18:02:29.313Z,380.00
2019-04-27T18:03:28.494Z,352.00
2019-04-27T18:04:28.748Z,320.00
2019-04-27T18:05:28.559Z,284.00
2019-04-27T18:06:29.713Z,256.00
2019-04-27T18:07:30.119Z,228.00
2019-04-27T18:08:29.129Z,204.00
2019-04-27T18:09:29.050Z,172.00
2019-04-27T18:10:28.280Z,144.00
2019-04-27T18:11:28.739Z,124.00
2019-04-27T18:12:28.497Z,108.00
2019-04-27T18:13:28.854Z,92.00
2019-04-27T18:14:32.542Z,84.00
2019-04-27T18:15:28.756Z,80.00
2019-04-27T18:16:31.103Z,72.00
2019-04-27T18:17:28.901Z,72.00
2019-04-27T18:18:28.107Z,72.00
2019-04-27T18:19:28.307Z,68.00
2019-04-27T18:20:28.944Z,68.00
2019-04-27T18:21:28.344Z,64.00
2019-04-27T18:22:28.200Z,60.00
2019-04-27T18:23:27.831Z,60.00
2019-04-27T18:24:29.121Z,60.00
2019-04-27T18:25:28.607Z,56.00
2019-04-27T18:26:29.516Z,52.00
2019-04-27T18:27:27.802Z,48.00
2019-04-27T18:28:28.368Z,48.00
2019-04-27T18:29:30.879Z,44.00
2019-04-27T18:30:28.237Z,40.00
2019-04-27T18:31:28.912Z,36.00
2019-04-27T18:32:28.739Z,36.00
2019-04-27T18:33:28.406Z,32.00
2019-04-27T18:34:28.623Z,28.00
2019-04-27T18:35:29.490Z,24.00
2019-04-27T18:36:29.438Z,20.00
2019-04-27T18:37:28.290Z,20.00
2019-04-27T18:38:30.899Z,16.00
2019-04-27T18:39:28.650Z,16.00
2019-04-27T18:40:32.068Z,12.00
2019-04-27T18:41:28.824Z,12.00
2019-04-27T18:42:31.145Z,12.00
2019-04-27T18:43:28.595Z,8.00
2019-04-27T18:44:30.510Z,8.00
2019-04-27T18:45:28.413Z,8.00
2019-04-27T18:46:28.284Z,4.00
2019-04-27T18:47:31.055Z,8.00
2019-04-27T18:48:27.571Z,4.00
2019-04-27T18:49:30.253Z,4.00
2019-04-27T18:50:28.195Z,4.00
2019-04-27T18:51:28.801Z,0.00
2019-04-27T18:52:27.528Z,0.00
2019-04-27T18:53:28.852Z,4.00
2019-04-27T18:54:28.786Z,4.00
2019-04-27T18:55:29.357Z,0.00
2019-04-27T18:56:29.069Z,0.00
2019-04-27T18:57:29.999Z,0.00
2019-04-27T18:58:27.435Z,0.00
2019-04-27T18:59:28.853Z,0.00
2019-04-27T19:00:27.982Z,0.00
2019-04-27T19:01:28.928Z,0.00
2019-04-27T19:02:28.815Z,0.00
2019-04-27T19:03:31.044Z,0.00
2019-04-27T19:04:28.151Z,0.00
2019-04-27T19:05:39.279Z,0.00
2019-04-27T19:06:29.014Z,0.00
2019-04-27T19:07:28.989Z,0.00
2019-04-27T19:08:28.154Z,0.00
2019-04-27T19:09:27.354Z,0.00